ADDS METAR Data INFO
IDs: Format: Raw Decoded Include TAF

Data at: 0142 UTC 17 Oct 2017

PGUM 170054Z 19008KT 6SM -RA BR BKN020 29/27 A2971 RMK AO2 RAB54 SLP054 P0000 T02890267
PGUM 162354Z 19005KT 10SM SCT014 29/26 A2972 RMK AO2 SLP057 T02890261 10289 20244 51009
PGUM 162345Z 18005KT 10SM BKN014 BKN028 29/26 A2972 RMK AO2 T02890261
PGUM 162335Z 17005KT 10SM SCT012 BKN017 BKN028 28/26 A2972 RMK AO2 T02830261
PGUM 162254Z COR 14004KT 10SM BKN010 BKN015 27/26 A2972 RMK AO2 CIG 008V012 SLP056 T02720261
PGUM 162227Z 16008KT 10SM FEW009 27/27 A2971 RMK AO2 T02720267
PGUM 162154Z 15003KT 10SM CLR 27/27 A2970 RMK AO2 SLP050 T02670267
PGUM 162118Z 19004KT 10SM FEW009 26/26 A2970 RMK AO2 T02610261
PGUM 162104Z 00000KT 10SM SCT008 BKN012 26/26 A2970 RMK AO2 T02560256
PGUM 162054Z COR 00000KT 10SM SCT008 BKN012 26/26 A2969 RMK AO2 SLP048 T02560256 53016
PGUM 162028Z 00000KT 10SM BKN008 BKN070 25/25 A2968 RMK AO2 CIG 006V010 T02500250
PGUM 161954Z 03003KT 10SM SCT090 26/26 A2966 RMK AO2 SLP037 T02560256
PGUM 161854Z 03003KT 10SM SCT037 BKN080 25/25 A2965 RMK AO2 SLP032 T02500250
PGUM 161836Z 00000KT 10SM SCT027 BKN037 26/26 A2965 RMK AO2 T02560256
PGUM 161654Z 00000KT 10SM BKN023 26/26 A2964 RMK AO2 RAE12 SLP029 P0001 T02560256
PGUM 161638Z 03004KT 10SM FEW021 25/25 A2965 RMK AO2 RAE12 P0001 T02500250
PGUM 161629Z 04003KT 10SM SCT021 BKN026 26/26 A2965 RMK AO2 RAE12 P0001 T02560256
PGUM 161619Z 00000KT 10SM SCT024 SCT045 BKN050 26/26 A2965 RMK AO2 RAE12 P0001 T02560256
PGUM 161554Z 08003KT 4SM RA BR SCT008 BKN017 OVC080 26/26 A2966 RMK AO2 RAB07 SLP036 P0010 T02560256
PGUM 161548Z 08006KT 3SM -RA BR SCT008 BKN015 OVC032 26/26 A2966 RMK AO2 RAB07 P0009
PGUM 161528Z 08003KT 2 1/2SM -RA BR OVC008 26/26 A2967 RMK AO2 RAB07 P0005 T02560256
PGUM 161510Z 00000KT 1 3/4SM RA BR FEW003 SCT009 BKN012 26/26 A2967 RMK AO2 RAB07 P0000 T02560256
PGUM 161505Z 18003KT 6SM BR FEW003 BKN012 26/26 A2967 RMK AO2 T02560256
PGUM 161454Z 05006KT 10SM FEW014 26/26 A2967 RMK AO2 SLP040 T02560256 57012
PGUM 161254Z 00000KT 10SM SCT016 26/26 A2970 RMK AO2 SLP048 T02610261
PGUM 161154Z 00000KT 10SM CLR 26/26 A2971 RMK AO2 SLP051 60016 70082 T02610256 10294 20250 51012
PGUM 161054Z 07003KT 10SM CLR 26/26 A2970 RMK AO2 SLP049 T02610256
PGUM 160954Z 05004KT 10SM FEW047 26/26 A2968 RMK AO2 RAE50 SLP042 P0002 T02610261
PGUM 160854Z 07006KT 5SM RA BR FEW055 BKN080 OVC100 26/26 A2967 RMK AO2 RAB09 SLP040 P0011 60014 T02560256 53007
PGUM 160836Z 03009KT 8SM -RA FEW015 BKN042 OVC100 25/25 A2968 RMK AO2 RAB09 P0010 T02500250
PGUM 160823Z 05012G16KT 2SM +RA BR FEW008 SCT015 BKN036 26/26 A2968 RMK AO2 VIS 1V5 RAB09 P0006 T02610261
PGUM 160821Z 04012G16KT 1 3/4SM -RA BR FEW010 SCT016 BKN027 26/26 A2968 RMK AO2 RAB09 P0003 T02610261
PGUM 160819Z 04012G16KT 2SM -RA BR FEW010 SCT016 BKN037 26/26 A2968 RMK AO2 VIS 1 1/2V5 RAB09 P0003 T02610261
PGUM 160754Z 03006KT 8SM CLR 27/26 A2966 RMK AO2 RAE07 SLP036 P0001 T02720256
PGUM 160654Z 04009G21KT 8SM -RA FEW016 SCT033 BKN070 27/26 A2966 RMK AO2 RAB46 SLP036 P0002 T02720261
PGUM 160642Z 06010KT 10SM SCT023 BKN032 29/25 A2966 RMK AO2 T02890250
PGUM 160610Z 04012KT 10SM FEW020 BKN025 BKN031 29/25 A2965 RMK AO2 T02890250
PGUM 160554Z 05011KT 10SM SCT022 SCT027 29/25 A2965 RMK AO2 SLP032 60066 T02940250 10306 20256 56005
PGUM 160550Z 05012KT 10SM SCT022 BKN027 29/26 A2965 RMK AO2
PGUM 160454Z 08009KT 10SM FEW016 SCT023 28/26 A2965 RMK AO2 SLP031 T02830261
PGUM 160354Z 03009KT 10SM FEW015 29/27 A2966 RMK AO2 RAE13 SLP037 P0000 T02890267
PGUM 160254Z 02010KT 3SM -RA BR BKN047 OVC060 27/26 A2970 RMK AO2 RAB00 SLP051 P0035 60066 T02670256 58019
PGUM 160231Z 02010KT 3SM -RA BR BKN030 BKN039 OVC048 26/26 A2971 RMK AO2 RAB00 P0035 T02610261
PGUM 160223Z 02010KT 1 1/4SM +RA BR FEW011 BKN021 OVC037 26/26 A2972 RMK AO2 RAB00 P0032 T02610261
PGUM 160202Z 04015G24KT 3/4SM +RA BR SCT011 BKN021 OVC028 27/26 A2973 RMK AO2 RAB00 P0000 T02670256
PGUM 160200Z 05017G24KT 2SM +RA BR FEW011 BKN024 OVC030 27/26 A2974 RMK AO2 RAB00 P0000 T02720261
PGUM 160154Z 01005KT 10SM FEW021 BKN030 OVC038 27/26 A2972 RMK AO2 RAE24 SLP058 P0031 T02670256
PGUM 160111Z 33007KT 5SM -RA BR FEW023 BKN032 OVC055 27/26 A2975 RMK AO2 P0030 T02670261
PGUM 160104Z 35009KT 1/2SM +RA FG BKN021 BKN035 OVC050 26/26 A2975 RMK AO2 P0019 T02610256
PGUM 160057Z COR 05017G20KT 5SM -RA SCT023 BKN032 OVC070 28/26 A2976 RMK AO2 P0000 T02830256
PGUM 160054Z 04014G19KT 7SM -RA SCT023 BKN046 OVC055 29/26 A2976 RMK AO2 RAB54 SLP068 P0000 T02940256
PGUM 152354Z 05010KT 10SM FEW030 31/25 A2976 RMK AO2 SLP069 T03060250 10311 20244 50000
PGUM 152341Z 04011KT 10SM FEW020 SCT026 SCT043 31/25 A2976 RMK AO2 T03060250
PGUM 152254Z 01005KT 10SM SCT018 SCT023 BKN029 29/27 A2978 RMK AO2 SLP075 T02890267
PGUM 152154Z 04007KT 10SM SCT060 28/26 A2976 RMK AO2 SLP070 T02780261
PGUM 152054Z 05007KT 10SM CLR 26/26 A2976 RMK AO2 SLP070 T02610256 53014
PGUM 151954Z 00000KT 10SM CLR 26/25 A2974 RMK AO2 SLP062 T02560250
PGUM 151854Z 36004KT 10SM CLR 25/24 A2972 RMK AO2 SLP058 T02500244
PGUM 151754Z 03006KT 10SM CLR 25/24 A2972 RMK AO2 SLP056 60000 T02500244 10261 20250 56015
PGUM 151654Z 05011KT 10SM CLR 25/24 A2972 RMK AO2 RAE1556 SLP057 P0000 T02500239
PGUM 151554Z 04012KT 10SM -RA FEW015 FEW027 SCT085 26/25 A2974 RMK AO2 RAB44 SLP064 P0000 T02560250
PGUM 151454Z 03005KT 10SM CLR 26/26 A2976 RMK AO2 SLP070 T02560256 58016
PGUM 151354Z 05004KT 10SM CLR 26/26 A2978 RMK AO2 SLP076 T02560256 403110244